Global Gold — 3FHS7 — position and weather

sailwx.info

Track history (hours):
 
Tides and Currents Weather Stations Pressure Air Temp Water Temp Dewpoint Dewpoint Depression Visibility Wind Speed Wind Dir Waves Ship Positions

Global Gold

Last reported at 2018-Feb-16 18:20 UTC. Time now 2018-Feb-25 06:13 UTC.
Position N 34°29' E 140°00'.
Warning: this ship's position is 8 days out of date.

Length 177 m; draft 6 m.

Type: Cargo ship. MMSI: 373889000.

Date/timePositionNaut miles runAvg speedWind from/ knotsBaromVisibWave heightAir tempDewpointWater temp
2018-Feb-16 18:20N 34°29' E 140°00'513.7
2018-Feb-16 18:00N 34°26' E 139°55'1813.2
2018-Feb-16 16:38N 34°15' E 139°38'212.0
2018-Feb-16 16:27N 34°14' E 139°35'1113.3
2018-Feb-16 15:37N 34°11' E 139°23'212.5
2018-Feb-16 15:29N 34°11' E 139°21'2013.0
2018-Feb-16 13:57N 34°04' E 138°58'913.2
2018-Feb-16 13:15N 34°01' E 138°48'33711.3
2018-Feb-15 07:19N 32°57' E 132°11'412.4
2018-Feb-15 07:00N 33°01' E 132°09'712.6
2018-Feb-15 06:28N 33°07' E 132°06'612.6
2018-Feb-15 06:00N 33°12' E 132°03'714.1
2018-Feb-15 05:30N 33°19' E 131°59'713.2
2018-Feb-15 04:59N 33°25' E 131°60'715.0
2018-Feb-15 04:30N 33°30' E 132°06'1214.8
2018-Feb-15 03:41N 33°39' E 132°17'314.4
2018-Feb-15 03:30N 33°40' E 132°19'714.0
2018-Feb-15 02:59N 33°45' E 132°26'713.9
2018-Feb-15 02:30N 33°50' E 132°32'713.2
2018-Feb-15 02:00N 33°54' E 132°37'510.2
2018-Feb-15 01:30N 33°57' E 132°42'4 8.8
2018-Feb-15 01:00N 34°02' E 132°42'511.1
2018-Feb-15 00:30N 34°07' E 132°39'611.3
2018-Feb-15 00:00N 34°12' E 132°36'  
2018-Feb-09 22:22N 34°13' E 132°37'1 0.1
2018-Feb-09 06:30N 34°12' E 132°37'4 8.4
2018-Feb-09 06:00N 34°08' E 132°38'340 7.5
2018-Feb-07 08:41N 34°17' E 139°29'2 8.4
2018-Feb-07 08:30N 34°18' E 139°31'5 8.5
2018-Feb-07 07:57N 34°20' E 139°36'4 8.6
2018-Feb-07 07:30N 34°22' E 139°39'10 9.4
2018-Feb-07 06:27N 34°28' E 139°49'4 9.0
2018-Feb-07 06:00N 34°31' E 139°53'  
Track history (hours):
 
Tides and Currents Weather Stations Pressure Air Temp Water Temp Dewpoint Dewpoint Depression Visibility Wind Speed Wind Dir Waves Ship Positions

Global Gold

Last reported at 2018-Feb-16 18:20 UTC. Time now 2018-Feb-25 06:13 UTC.
Position N 34°29' E 140°00'.
Warning: this ship's position is 8 days out of date.

Length 177 m; draft 6 m.

Type: Cargo ship. MMSI: 373889000.

Date/timePositionNaut miles runAvg speedWind from/ knotsBaromVisibWave heightAir tempDewpointWater temp
2018-Feb-16 18:20N 34°29' E 140°00'513.7
2018-Feb-16 18:00N 34°26' E 139°55'1813.2
2018-Feb-16 16:38N 34°15' E 139°38'212.0
2018-Feb-16 16:27N 34°14' E 139°35'1113.3
2018-Feb-16 15:37N 34°11' E 139°23'212.5
2018-Feb-16 15:29N 34°11' E 139°21'2013.0
2018-Feb-16 13:57N 34°04' E 138°58'913.2
2018-Feb-16 13:15N 34°01' E 138°48'33711.3
2018-Feb-15 07:19N 32°57' E 132°11'412.4
2018-Feb-15 07:00N 33°01' E 132°09'712.6
2018-Feb-15 06:28N 33°07' E 132°06'612.6
2018-Feb-15 06:00N 33°12' E 132°03'714.1
2018-Feb-15 05:30N 33°19' E 131°59'713.2
2018-Feb-15 04:59N 33°25' E 131°60'715.0
2018-Feb-15 04:30N 33°30' E 132°06'1214.8
2018-Feb-15 03:41N 33°39' E 132°17'314.4
2018-Feb-15 03:30N 33°40' E 132°19'714.0
2018-Feb-15 02:59N 33°45' E 132°26'713.9
2018-Feb-15 02:30N 33°50' E 132°32'713.2
2018-Feb-15 02:00N 33°54' E 132°37'510.2
2018-Feb-15 01:30N 33°57' E 132°42'4 8.8
2018-Feb-15 01:00N 34°02' E 132°42'511.1
2018-Feb-15 00:30N 34°07' E 132°39'611.3
2018-Feb-15 00:00N 34°12' E 132°36'  
2018-Feb-09 22:22N 34°13' E 132°37'1 0.1
2018-Feb-09 06:30N 34°12' E 132°37'4 8.4
2018-Feb-09 06:00N 34°08' E 132°38'340 7.5
2018-Feb-07 08:41N 34°17' E 139°29'2 8.4
2018-Feb-07 08:30N 34°18' E 139°31'5 8.5
2018-Feb-07 07:57N 34°20' E 139°36'4 8.6
2018-Feb-07 07:30N 34°22' E 139°39'10 9.4
2018-Feb-07 06:27N 34°28' E 139°49'4 9.0
2018-Feb-07 06:00N 34°31' E 139°53'  

Dump ship's entire track history